Time;durP1;ratioP1;P1;durP2;ratioP2;P2;SDS_P1;SDS_P2;PMS_P1;PMS_P2;Temp;Humidity;BMP_temperature;BMP_pressure;BME280_temperature;BME280_humidity;BME280_pressure;Samples;Min_cycle;Max_cycle;Signal;HPM_P1;HPM_P2
2023/09/14 00:01:32;;;;;;;;;;;;;;;;;;5016666;28;19920;-80
2023/09/14 00:03:57;;;;;;;;;;;;;;;;;;5034770;28;20323;-80
2023/09/14 00:06:22;;;;;;;;;;;;;;;;;;5023953;28;19928;-80
2023/09/14 00:08:47;;;;;;;;;;;;;;;;;;5023938;28;20052;-79
2023/09/14 00:11:13;;;;;;;;;;;;;;;;;;5019681;28;19921;-79
2023/09/14 00:13:38;;;;;;;;;;;;;;;;;;5031472;28;19917;-80
2023/09/14 00:16:03;;;;;;;;;;;;;;;;;;5035247;28;19924;-80
2023/09/14 00:18:29;;;;;;;;;;;;;;;;;;5031966;28;20017;-79
2023/09/14 00:20:56;;;;;;;;;;;;;;;;;;5021098;28;19927;-79
2023/09/14 00:23:21;;;;;;;;;;;;;;;;;;5023742;28;20408;-79
2023/09/14 00:25:47;;;;;;;;;;;;;;;;;;5033828;28;19929;-80
2023/09/14 00:28:13;;;;;;;;;;;;;;;;;;5026887;28;19925;-80
2023/09/14 00:30:38;;;;;;;;;;;;;;;;;;5034317;28;20027;-79
2023/09/14 00:33:03;;;;;;;;;;;;;;;;;;5035028;28;20074;-79
2023/09/14 00:35:29;;;;;;;;;;;;;;;;;;5035653;28;20024;-79
2023/09/14 00:37:54;;;;;;;;;;;;;;;;;;5023199;28;20387;-79
2023/09/14 00:40:20;;;;;;;;;;;;;;;;;;5031716;28;20024;-80
2023/09/14 00:42:46;;;;;;;;;;;;;;;;;;5021500;28;19917;-80
2023/09/14 00:45:13;;;;;;;;;;;;;;;;;;5032319;28;20441;-79
2023/09/14 00:47:38;;;;;;;;;;;;;;;;;;5020044;28;19971;-80
2023/09/14 00:50:04;;;;;;;;;;;;;;;;;;5034660;28;19921;-80
2023/09/14 00:52:30;;;;;;;;;;;;;;;;;;5024804;28;19960;-79
2023/09/14 00:54:55;;;;;;;;;;;;;;;;;;5035181;28;20331;-80
2023/09/14 00:57:21;;;;;;;;;;;;;;;;;;5033660;28;20271;-79
2023/09/14 00:59:46;;;;;;;;;;;;;;;;;;5035107;28;20257;-79
2023/09/14 01:02:11;;;;;;;;;;;;;;;;;;5017379;28;20380;-79
2023/09/14 01:04:37;;;;;;;;;;;;;;;;;;5026392;28;19920;-79
2023/09/14 01:07:02;;;;;;;;;;;;;;;;;;5031653;28;19925;-80
2023/09/14 01:09:28;;;;;;;;;;;;;;;;;;5030966;28;20360;-79
2023/09/14 01:11:56;;;;;;;;;;;;;;;;;;5027818;28;19928;-80
2023/09/14 01:14:23;;;;;;;;;;;;;;;;;;5036547;28;20359;-80
2023/09/14 01:17:01;;;;;;;;;;;;;;;;;;5022204;28;19920;-79
2023/09/14 01:19:26;;;;;;;;;;;;;;;;;;5033803;28;20563;-79
2023/09/14 01:21:52;;;;;;;;;;;;;;;;;;5042369;28;19924;-79
2023/09/14 01:24:19;;;;;;;;;;;;;;;;;;5032423;28;20407;-80
2023/09/14 01:26:45;;;;;;;;;;;;;;;;;;5013609;28;19987;-79
2023/09/14 01:29:10;;;;;;;;;;;;;;;;;;5030727;28;19921;-79
2023/09/14 01:31:35;;;;;;;;;;;;;;;;;;5020376;28;19917;-79
2023/09/14 01:34:01;;;;;;;;;;;;;;;;;;5017945;28;20409;-79
2023/09/14 01:36:35;;;;;;;;;;;;;;;;;;5021709;28;19921;-79
2023/09/14 01:39:00;;;;;;;;;;;;;;;;;;5036270;28;19917;-79
2023/09/14 01:41:25;;;;;;;;;;;;;;;;;;5024521;28;20505;-79
2023/09/14 01:43:53;;;;;;;;;;;;;;;;;;5036225;28;19966;-79
2023/09/14 01:46:18;;;;;;;;;;;;;;;;;;5035707;28;19931;-79
2023/09/14 01:48:44;;;;;;;;;;;;;;;;;;5025475;28;19921;-79
2023/09/14 01:51:09;;;;;;;;;;;;;;;;;;5022977;28;19967;-79
2023/09/14 01:53:35;;;;;;;;;;;;;;;;;;5025118;28;20363;-79
2023/09/14 01:56:00;;;;;;;;;;;;;;;;;;5020640;28;19963;-79
2023/09/14 01:58:25;;;;;;;;;;;;;;;;;;5023282;28;19943;-79
2023/09/14 02:00:50;;;;;;;;;;;;;;;;;;5030114;28;19967;-79
2023/09/14 02:03:16;;;;;;;;;;;;;;;;;;5037089;28;19925;-80
2023/09/14 02:05:41;;;;;;;;;;;;;;;;;;5033268;28;19921;-79
2023/09/14 02:08:07;;;;;;;;;;;;;;;;;;5025989;28;19961;-79
2023/09/14 02:10:32;;;;;;;;;;;;;;;;;;5019821;28;19921;-80
2023/09/14 02:12:57;;;;;;;;;;;;;;;;;;5023906;28;19928;-78
2023/09/14 02:15:23;;;;;;;;;;;;;;;;;;5030091;28;19928;-78
2023/09/14 02:17:48;;;;;;;;;;;;;;;;;;5033294;28;19952;-78
2023/09/14 02:20:14;;;;;;;;;;;;;;;;;;5021782;28;19920;-79
2023/09/14 02:22:39;;;;;;;;;;;;;;;;;;5032581;28;19967;-79
2023/09/14 02:25:05;;;;;;;;;;;;;;;;;;5016398;28;19925;-79
2023/09/14 02:27:30;;;;;;;;;;;;;;;;;;5018914;28;20007;-79
2023/09/14 02:29:56;;;;;;;;;;;;;;;;;;5021201;28;20007;-79
2023/09/14 02:32:21;;;;;;;;;;;;;;;;;;5032422;28;19925;-79
2023/09/14 02:34:48;;;;;;;;;;;;;;;;;;5019853;28;19921;-79
2023/09/14 02:37:13;;;;;;;;;;;;;;;;;;5029966;28;20386;-79
2023/09/14 02:39:38;;;;;;;;;;;;;;;;;;5034638;28;19917;-79
2023/09/14 02:42:04;;;;;;;;;;;;;;;;;;5033714;28;19921;-79
2023/09/14 02:44:29;;;;;;;;;;;;;;;;;;5040640;28;19987;-79
2023/09/14 02:46:54;;;;;;;;;;;;;;;;;;5027405;28;19924;-79
2023/09/14 02:49:19;;;;;;;;;;;;;;;;;;5040781;28;19917;-79
2023/09/14 02:51:44;;;;;;;;;;;;;;;;;;5017765;28;19925;-79
2023/09/14 02:54:10;;;;;;;;;;;;;;;;;;5033349;28;19927;-79
2023/09/14 02:56:35;;;;;;;;;;;;;;;;;;5028477;28;19927;-79
2023/09/14 02:59:00;;;;;;;;;;;;;;;;;;5019859;28;19924;-79
2023/09/14 03:01:28;;;;;;;;;;;;;;;;;;5019716;28;20364;-79
2023/09/14 03:03:53;;;;;;;;;;;;;;;;;;5032448;28;19921;-79
2023/09/14 03:06:18;;;;;;;;;;;;;;;;;;5018776;28;20420;-79
2023/09/14 03:08:43;;;;;;;;;;;;;;;;;;5032545;28;19927;-79
2023/09/14 03:11:09;;;;;;;;;;;;;;;;;;5031928;28;19928;-79
2023/09/14 03:13:34;;;;;;;;;;;;;;;;;;5016620;28;20045;-78
2023/09/14 03:15:59;;;;;;;;;;;;;;;;;;5016213;28;19924;-79
2023/09/14 03:18:25;;;;;;;;;;;;;;;;;;5031605;28;20284;-79
2023/09/14 03:20:54;;;;;;;;;;;;;;;;;;5032753;28;20279;-80
2023/09/14 03:23:20;;;;;;;;;;;;;;;;;;5040213;28;19921;-79
2023/09/14 03:25:45;;;;;;;;;;;;;;;;;;5023673;28;19979;-79
2023/09/14 03:28:11;;;;;;;;;;;;;;;;;;5035098;28;19936;-78
2023/09/14 03:30:36;;;;;;;;;;;;;;;;;;5016698;28;20961;-79
2023/09/14 03:33:02;;;;;;;;;;;;;;;;;;5035083;28;19975;-78
2023/09/14 03:35:27;;;;;;;;;;;;;;;;;;5033151;28;19921;-78
2023/09/14 03:37:52;;;;;;;;;;;;;;;;;;5021801;28;19921;-78
2023/09/14 03:40:18;;;;;;;;;;;;;;;;;;5035718;28;19928;-78
2023/09/14 03:42:43;;;;;;;;;;;;;;;;;;5026802;28;20922;-78
2023/09/14 03:45:09;;;;;;;;;;;;;;;;;;5025374;28;20013;-79
2023/09/14 03:47:34;;;;;;;;;;;;;;;;;;5035683;28;20299;-79
2023/09/14 03:49:59;;;;;;;;;;;;;;;;;;5023981;28;19917;-79
2023/09/14 03:52:24;;;;;;;;;;;;;;;;;;5035631;28;19921;-79
2023/09/14 03:54:50;;;;;;;;;;;;;;;;;;5022777;28;19924;-79
2023/09/14 03:57:15;;;;;;;;;;;;;;;;;;5035250;28;19970;-79
2023/09/14 03:59:43;;;;;;;;;;;;;;;;;;5037430;28;20592;-80
2023/09/14 04:02:09;;;;;;;;;;;;;;;;;;5035000;28;19928;-79
2023/09/14 04:04:34;;;;;;;;;;;;;;;;;;5020850;28;19921;-78
2023/09/14 04:07:03;;;;;;;;;;;;;;;;;;5016724;28;20171;-79
2023/09/14 04:09:29;;;;;;;;;;;;;;;;;;4997324;28;20000;-79
2023/09/14 04:11:57;;;;;;;;;;;;;;;;;;5041046;28;19952;-81
2023/09/14 04:14:22;;;;;;;;;;;;;;;;;;5007824;28;20360;-80
2023/09/14 04:16:47;;;;;;;;;;;;;;;;;;5011062;28;19921;-81
2023/09/14 04:19:18;;;;;;;;;;;;;;;;;;5006150;28;20190;-81
2023/09/14 04:21:44;;;;;;;;;;;;;;;;;;5026357;28;19925;-81
2023/09/14 04:24:10;;;;;;;;;;;;;;;;;;5034011;28;20363;-81
2023/09/14 04:26:35;;;;;;;;;;;;;;;;;;5026451;28;19924;-81
2023/09/14 04:29:00;;;;;;;;;;;;;;;;;;5033544;28;19983;-80
2023/09/14 04:31:26;;;;;;;;;;;;;;;;;;5034368;28;19928;-81
2023/09/14 04:33:51;;;;;;;;;;;;;;;;;;5033218;28;19921;-81
2023/09/14 04:36:16;;;;;;;;;;;;;;;;;;5032344;28;19921;-80
2023/09/14 04:38:42;;;;;;;;;;;;;;;;;;5016211;28;20279;-80
2023/09/14 04:41:07;;;;;;;;;;;;;;;;;;5036506;28;20379;-81
2023/09/14 04:43:32;;;;;;;;;;;;;;;;;;5034830;28;19925;-81
2023/09/14 04:45:58;;;;;;;;;;;;;;;;;;5023582;28;19967;-80
2023/09/14 04:48:24;;;;;;;;;;;;;;;;;;5035088;28;20286;-81
2023/09/14 04:50:49;;;;;;;;;;;;;;;;;;5035027;28;19943;-80
2023/09/14 04:53:14;;;;;;;;;;;;;;;;;;5034179;28;19925;-80
2023/09/14 05:10:29;;;;;;;;;;;;;;;;;;5301026;22;20000;-81
2023/09/14 05:12:54;;;;;;;;;;;;;;;;;;4999825;28;19928;-81
2023/09/14 05:15:19;;;;;;;;;;;;;;;;;;5015045;28;20029;-82
2023/09/14 05:17:44;;;;;;;;;;;;;;;;;;5007225;28;19971;-81
2023/09/14 05:20:10;;;;;;;;;;;;;;;;;;5004172;28;20028;-81
2023/09/14 05:22:37;;;;;;;;;;;;;;;;;;4999457;28;19961;-81
2023/09/14 05:25:03;;;;;;;;;;;;;;;;;;4992659;28;20015;-81
2023/09/14 05:27:29;;;;;;;;;;;;;;;;;;4998817;28;19925;-81
2023/09/14 05:29:54;;;;;;;;;;;;;;;;;;4999012;28;19921;-82
2023/09/14 05:32:19;;;;;;;;;;;;;;;;;;5005508;28;19927;-82
2023/09/14 05:34:45;;;;;;;;;;;;;;;;;;5012741;28;20468;-81
2023/09/14 05:37:10;;;;;;;;;;;;;;;;;;5012306;28;19927;-82
2023/09/14 05:39:36;;;;;;;;;;;;;;;;;;4999324;28;19953;-82
2023/09/14 05:42:01;;;;;;;;;;;;;;;;;;5002942;28;19932;-82
2023/09/14 05:44:26;;;;;;;;;;;;;;;;;;5014159;28;19979;-81
2023/09/14 05:46:52;;;;;;;;;;;;;;;;;;5014066;28;20362;-81
2023/09/14 05:49:17;;;;;;;;;;;;;;;;;;5012162;28;20456;-81
2023/09/14 05:51:42;;;;;;;;;;;;;;;;;;5013602;28;20284;-81
2023/09/14 05:54:08;;;;;;;;;;;;;;;;;;5003460;28;20051;-82
2023/09/14 05:56:33;;;;;;;;;;;;;;;;;;5014421;28;20004;-81
2023/09/14 05:58:58;;;;;;;;;;;;;;;;;;5016494;28;19925;-81
2023/09/14 06:01:24;;;;;;;;;;;;;;;;;;5013674;28;19921;-82
2023/09/14 06:03:49;;;;;;;;;;;;;;;;;;5004801;28;20412;-82
2023/09/14 06:06:15;;;;;;;;;;;;;;;;;;4999023;28;19970;-82
2023/09/14 06:08:40;;;;;;;;;;;;;;;;;;5013667;28;19929;-82
2023/09/14 06:11:06;;;;;;;;;;;;;;;;;;5004226;28;19929;-81
2023/09/14 06:13:31;;;;;;;;;;;;;;;;;;5015121;28;19920;-81
2023/09/14 06:15:56;;;;;;;;;;;;;;;;;;5009619;28;19917;-81
2023/09/14 06:18:21;;;;;;;;;;;;;;;;;;5019599;28;19928;-81
2023/09/14 06:20:47;;;;;;;;;;;;;;;;;;5024429;28;19964;-81
2023/09/14 06:23:12;;;;;;;;;;;;;;;;;;5019348;28;19975;-82
2023/09/14 06:25:37;;;;;;;;;;;;;;;;;;5024301;28;19930;-81
2023/09/14 06:28:03;;;;;;;;;;;;;;;;;;5018146;28;20008;-82
2023/09/14 06:30:29;;;;;;;;;;;;;;;;;;5019133;28;19928;-81
2023/09/14 06:32:54;;;;;;;;;;;;;;;;;;5033957;28;19921;-82
2023/09/14 06:35:19;;;;;;;;;;;;;;;;;;5035915;28;19960;-81
2023/09/14 06:37:45;;;;;;;;;;;;;;;;;;5017974;28;20041;-81
2023/09/14 06:40:10;;;;;;;;;;;;;;;;;;5019627;28;20012;-82
2023/09/14 06:42:36;;;;;;;;;;;;;;;;;;5032244;28;19970;-81
2023/09/14 06:45:01;;;;;;;;;;;;;;;;;;5024813;28;19925;-82
2023/09/14 06:47:26;;;;;;;;;;;;;;;;;;5023309;28;19991;-81
2023/09/14 06:49:52;;;;;;;;;;;;;;;;;;5032851;28;19917;-82
2023/09/14 06:52:17;;;;;;;;;;;;;;;;;;5031740;28;19921;-82
2023/09/14 06:54:42;;;;;;;;;;;;;;;;;;5017152;28;19979;-82
2023/09/14 06:57:07;;;;;;;;;;;;;;;;;;5023683;28;19976;-81
2023/09/14 06:59:33;;;;;;;;;;;;;;;;;;5028495;28;20471;-82
2023/09/14 07:01:59;;;;;;;;;;;;;;;;;;5022911;28;19921;-82
2023/09/14 07:04:24;;;;;;;;;;;;;;;;;;5026557;28;19929;-82
2023/09/14 07:06:49;;;;;;;;;;;;;;;;;;5022657;28;19975;-82
2023/09/14 07:09:15;;;;;;;;;;;;;;;;;;5026675;28;19937;-82
2023/09/14 07:11:40;;;;;;;;;;;;;;;;;;5027575;28;20419;-82
2023/09/14 07:14:05;;;;;;;;;;;;;;;;;;5028211;28;19920;-81
2023/09/14 07:16:33;;;;;;;;;;;;;;;;;;5037470;28;20334;-82
2023/09/14 07:19:00;;;;;;;;;;;;;;;;;;5027308;28;19921;-82
2023/09/14 07:21:26;;;;;;;;;;;;;;;;;;5035654;28;19917;-82
2023/09/14 07:23:52;;;;;;;;;;;;;;;;;;5017908;28;20004;-82
2023/09/14 07:26:17;;;;;;;;;;;;;;;;;;5024547;28;20076;-82
2023/09/14 07:28:42;;;;;;;;;;;;;;;;;;5025952;28;20441;-82
2023/09/14 07:31:08;;;;;;;;;;;;;;;;;;5036779;28;20287;-83
2023/09/14 07:33:33;;;;;;;;;;;;;;;;;;5035583;28;20374;-83
2023/09/14 07:35:59;;;;;;;;;;;;;;;;;;5021550;28;19920;-81
2023/09/14 07:38:24;;;;;;;;;;;;;;;;;;5039649;28;19960;-82
2023/09/14 07:40:50;;;;;;;;;;;;;;;;;;5020435;28;20335;-82
2023/09/14 07:43:15;;;;;;;;;;;;;;;;;;5036881;28;22604;-82
2023/09/14 07:45:41;;;;;;;;;;;;;;;;;;5026257;28;19967;-82
2023/09/14 07:48:06;;;;;;;;;;;;;;;;;;5037329;28;19931;-82
2023/09/14 07:50:36;;;;;;;;;;;;;;;;;;5036550;28;19916;-82
2023/09/14 07:53:03;;;;;;;;;;;;;;;;;;5027680;28;19928;-82
2023/09/14 07:55:28;;;;;;;;;;;;;;;;;;5036033;28;19927;-81
2023/09/14 07:57:54;;;;;;;;;;;;;;;;;;5037144;28;19921;-82
2023/09/14 08:00:19;;;;;;;;;;;;;;;;;;5039406;28;19928;-83
2023/09/14 08:02:44;;;;;;;;;;;;;;;;;;5022045;28;19917;-82
2023/09/14 08:05:10;;;;;;;;;;;;;;;;;;5019276;28;19917;-82
2023/09/14 08:07:35;;;;;;;;;;;;;;;;;;5026423;28;19921;-82
2023/09/14 08:10:00;;;;;;;;;;;;;;;;;;5026814;28;19935;-82
2023/09/14 08:12:26;;;;;;;;;;;;;;;;;;5010301;28;19984;-81
2023/09/14 08:14:51;;;;;;;;;;;;;;;;;;5029167;28;19928;-82
2023/09/14 08:17:16;;;;;;;;;;;;;;;;;;5019315;28;19936;-82
2023/09/14 08:19:43;;;;;;;;;;;;;;;;;;5025760;28;19921;-82
2023/09/14 08:22:08;;;;;;;;;;;;;;;;;;5018100;28;20008;-82
2023/09/14 08:24:33;;;;;;;;;;;;;;;;;;5035871;28;20004;-82
2023/09/14 08:26:59;;;;;;;;;;;;;;;;;;5037278;28;19925;-82
2023/09/14 08:29:25;;;;;;;;;;;;;;;;;;5027296;28;19921;-82
2023/09/14 08:31:50;;;;;;;;;;;;;;;;;;5024715;28;20395;-82
2023/09/14 08:34:16;;;;;;;;;;;;;;;;;;5038774;28;19947;-83
2023/09/14 08:36:41;;;;;;;;;;;;;;;;;;5026368;28;20012;-82
2023/09/14 08:39:06;;;;;;;;;;;;;;;;;;5026503;28;20376;-82
2023/09/14 08:41:39;;;;;;;;;;;;;;;;;;5027005;28;20027;-82
2023/09/14 08:44:05;;;;;;;;;;;;;;;;;;5036238;28;19961;-82
2023/09/14 08:46:30;;;;;;;;;;;;;;;;;;5033165;28;20391;-82
2023/09/14 08:48:56;;;;;;;;;;;;;;;;;;5028000;28;19921;-82
2023/09/14 08:51:21;;;;;;;;;;;;;;;;;;5027712;28;20433;-82
2023/09/14 08:53:46;;;;;;;;;;;;;;;;;;5026802;28;19951;-84
2023/09/14 08:56:13;;;;;;;;;;;;;;;;;;5027035;28;19928;-82
2023/09/14 08:58:38;;;;;;;;;;;;;;;;;;5025447;28;19979;-84
2023/09/14 09:01:03;;;;;;;;;;;;;;;;;;5026029;28;20561;-83
2023/09/14 09:03:28;;;;;;;;;;;;;;;;;;5026041;28;19952;-83
2023/09/14 09:05:54;;;;;;;;;;;;;;;;;;5036114;28;19913;-84
2023/09/14 09:08:20;;;;;;;;;;;;;;;;;;5025204;28;19925;-83
2023/09/14 09:10:45;;;;;;;;;;;;;;;;;;5034447;28;20452;-83
2023/09/14 09:13:11;;;;;;;;;;;;;;;;;;5036807;28;20059;-83
2023/09/14 09:15:36;;;;;;;;;;;;;;;;;;5024822;28;19921;-83
2023/09/14 09:18:08;;;;;;;;;;;;;;;;;;5034272;28;20370;-83
2023/09/14 09:20:35;;;;;;;;;;;;;;;;;;5020345;28;19917;-83
2023/09/14 09:23:01;;;;;;;;;;;;;;;;;;5027149;28;20325;-83
2023/09/14 09:25:26;;;;;;;;;;;;;;;;;;5017849;28;19927;-83
2023/09/14 09:28:03;;;;;;;;;;;;;;;;;;5037323;28;20394;-83
2023/09/14 09:30:29;;;;;;;;;;;;;;;;;;5025903;28;20318;-83
2023/09/14 09:32:55;;;;;;;;;;;;;;;;;;5019517;28;19971;-83
2023/09/14 09:35:21;;;;;;;;;;;;;;;;;;5025971;28;19921;-83
2023/09/14 09:37:47;;;;;;;;;;;;;;;;;;5033074;28;20385;-83
2023/09/14 09:40:16;;;;;;;;;;;;;;;;;;5026026;28;19916;-82
2023/09/14 09:42:42;;;;;;;;;;;;;;;;;;5025786;28;19924;-83
2023/09/14 09:45:08;;;;;;;;;;;;;;;;;;5032152;28;20394;-82
2023/09/14 09:47:33;;;;;;;;;;;;;;;;;;5019964;28;20371;-82
2023/09/14 09:49:58;;;;;;;;;;;;;;;;;;5015222;28;19944;-82
2023/09/14 09:52:24;;;;;;;;;;;;;;;;;;5015806;28;19967;-83
2023/09/14 09:54:49;;;;;;;;;;;;;;;;;;5019973;28;19928;-82
2023/09/14 09:57:15;;;;;;;;;;;;;;;;;;5025603;28;19991;-83
2023/09/14 09:59:40;;;;;;;;;;;;;;;;;;5025669;28;20349;-83
2023/09/14 10:02:07;;;;;;;;;;;;;;;;;;5018979;28;19971;-83
2023/09/14 10:04:32;;;;;;;;;;;;;;;;;;5036380;28;19921;-83
2023/09/14 10:06:59;;;;;;;;;;;;;;;;;;5032440;28;20368;-82
2023/09/14 10:09:24;;;;;;;;;;;;;;;;;;5035066;28;19963;-83
2023/09/14 10:11:51;;;;;;;;;;;;;;;;;;5016161;28;19921;-83
2023/09/14 10:14:16;;;;;;;;;;;;;;;;;;5042351;28;19924;-82
2023/09/14 10:16:42;;;;;;;;;;;;;;;;;;5019283;28;19987;-83
2023/09/14 10:19:08;;;;;;;;;;;;;;;;;;5015093;28;19965;-83
2023/09/14 10:21:33;;;;;;;;;;;;;;;;;;5021468;28;19921;-83
2023/09/14 10:24:00;;;;;;;;;;;;;;;;;;5021119;28;20370;-82
2023/09/14 10:26:25;;;;;;;;;;;;;;;;;;5018803;28;20395;-83
2023/09/14 10:28:50;;;;;;;;;;;;;;;;;;5026228;28;19921;-83
2023/09/14 10:31:16;;;;;;;;;;;;;;;;;;5035450;28;19921;-83
2023/09/14 10:33:49;;;;;;;;;;;;;;;;;;5033453;28;19924;-83
2023/09/14 10:36:14;;;;;;;;;;;;;;;;;;5025172;28;19921;-82
2023/09/14 10:38:42;;;;;;;;;;;;;;;;;;5022745;28;20353;-83
2023/09/14 10:41:08;;;;;;;;;;;;;;;;;;5037609;28;20625;-83
2023/09/14 10:43:33;;;;;;;;;;;;;;;;;;5013877;28;19925;-83
2023/09/14 10:46:00;;;;;;;;;;;;;;;;;;5013879;28;19928;-83
2023/09/14 10:48:29;;;;;;;;;;;;;;;;;;5020406;28;19926;-84
2023/09/14 10:50:54;;;;;;;;;;;;;;;;;;5022499;28;19927;-83
2023/09/14 10:53:21;;;;;;;;;;;;;;;;;;5012343;28;19918;-83
2023/09/14 10:55:47;;;;;;;;;;;;;;;;;;5020608;28;19932;-83
2023/09/14 10:58:15;;;;;;;;;;;;;;;;;;5018026;28;19920;-83
2023/09/14 11:00:42;;;;;;;;;;;;;;;;;;5034810;28;20414;-83
2023/09/14 11:03:08;;;;;;;;;;;;;;;;;;5027414;28;20437;-84
2023/09/14 11:05:36;;;;;;;;;;;;;;;;;;5020374;28;19921;-84
2023/09/14 11:08:04;;;;;;;;;;;;;;;;;;5033950;28;20710;-84
2023/09/14 11:10:30;;;;;;;;;;;;;;;;;;5006506;28;19929;-83
2023/09/14 11:13:14;;;;;;;;;;;;;;;;;;5035850;28;19974;-81
2023/09/14 11:15:39;;;;;;;;;;;;;;;;;;5017201;28;19972;-82
2023/09/14 11:18:04;;;;;;;;;;;;;;;;;;5027679;28;19925;-82
2023/09/14 11:20:39;;;;;;;;;;;;;;;;;;5017889;28;20426;-82
2023/09/14 11:23:05;;;;;;;;;;;;;;;;;;5033878;28;20257;-83
2023/09/14 11:25:31;;;;;;;;;;;;;;;;;;5033807;28;19921;-82
2023/09/14 11:27:56;;;;;;;;;;;;;;;;;;5016067;28;20396;-82
2023/09/14 11:30:24;;;;;;;;;;;;;;;;;;5032968;28;20047;-81
2023/09/14 11:32:49;;;;;;;;;;;;;;;;;;5021434;28;20338;-81
2023/09/14 11:35:14;;;;;;;;;;;;;;;;;;5014014;28;20015;-82
2023/09/14 11:37:40;;;;;;;;;;;;;;;;;;5016336;28;19928;-82
2023/09/14 11:40:06;;;;;;;;;;;;;;;;;;5024968;28;20483;-82
2023/09/14 11:42:49;;;;;;;;;;;;;;;;;;5017205;28;19924;-81
2023/09/14 11:45:15;;;;;;;;;;;;;;;;;;5034070;28;19928;-82
2023/09/14 11:47:40;;;;;;;;;;;;;;;;;;5036223;28;19928;-82
2023/09/14 11:50:06;;;;;;;;;;;;;;;;;;5037210;28;19967;-81
2023/09/14 11:52:31;;;;;;;;;;;;;;;;;;5027989;28;20326;-82
2023/09/14 11:54:57;;;;;;;;;;;;;;;;;;5028307;28;19920;-81
2023/09/14 11:57:28;;;;;;;;;;;;;;;;;;5025269;28;19921;-82
2023/09/14 11:59:53;;;;;;;;;;;;;;;;;;5028703;28;20390;-82
2023/09/14 12:02:19;;;;;;;;;;;;;;;;;;5037723;28;19921;-82
2023/09/14 12:04:44;;;;;;;;;;;;;;;;;;5027905;28;19944;-82
2023/09/14 12:07:10;;;;;;;;;;;;;;;;;;5035219;28;20440;-82
2023/09/14 12:09:39;;;;;;;;;;;;;;;;;;5024005;28;19929;-81
2023/09/14 12:12:05;;;;;;;;;;;;;;;;;;5020187;28;19970;-81
2023/09/14 12:14:40;;;;;;;;;;;;;;;;;;5043646;28;19952;-81
2023/09/14 12:17:18;;;;;;;;;;;;;;;;;;5025406;28;20398;-83
2023/09/14 12:19:44;;;;;;;;;;;;;;;;;;5037100;28;20398;-81
2023/09/14 12:22:09;;;;;;;;;;;;;;;;;;5018428;28;19921;-81
2023/09/14 12:24:35;;;;;;;;;;;;;;;;;;5019076;28;20586;-82
2023/09/14 12:27:00;;;;;;;;;;;;;;;;;;5035572;28;19925;-81
2023/09/14 12:29:25;;;;;;;;;;;;;;;;;;5029208;28;19921;-79
2023/09/14 12:31:51;;;;;;;;;;;;;;;;;;5014606;28;20418;-78
2023/09/14 12:34:16;;;;;;;;;;;;;;;;;;5017064;28;20902;-79
2023/09/14 12:36:42;;;;;;;;;;;;;;;;;;5027008;28;19917;-78
2023/09/14 12:39:12;;;;;;;;;;;;;;;;;;5035790;28;19964;-78
2023/09/14 12:41:37;;;;;;;;;;;;;;;;;;5034777;28;19964;-78
2023/09/14 12:44:02;;;;;;;;;;;;;;;;;;5014645;28;20374;-81
2023/09/14 12:46:28;;;;;;;;;;;;;;;;;;5032754;28;20412;-79
2023/09/14 12:48:58;;;;;;;;;;;;;;;;;;5024147;28;19921;-79
2023/09/14 12:51:23;;;;;;;;;;;;;;;;;;5034394;28;20380;-78
2023/09/14 12:53:48;;;;;;;;;;;;;;;;;;5025371;28;19928;-79
2023/09/14 12:56:14;;;;;;;;;;;;;;;;;;5032421;28;19918;-79
2023/09/14 12:58:41;;;;;;;;;;;;;;;;;;5022670;28;20061;-79
2023/09/14 13:01:08;;;;;;;;;;;;;;;;;;5023986;28;19921;-78
2023/09/14 13:03:34;;;;;;;;;;;;;;;;;;5027379;28;19920;-78
2023/09/14 13:05:59;;;;;;;;;;;;;;;;;;5024706;28;19928;-79
2023/09/14 13:08:24;;;;;;;;;;;;;;;;;;5022319;28;19929;-81
2023/09/14 13:10:49;;;;;;;;;;;;;;;;;;5023208;28;19932;-79
2023/09/14 13:13:15;;;;;;;;;;;;;;;;;;5026087;28;20690;-78
2023/09/14 13:15:41;;;;;;;;;;;;;;;;;;5025666;28;19913;-80
2023/09/14 13:18:09;;;;;;;;;;;;;;;;;;5022001;28;20218;-78
2023/09/14 13:20:36;;;;;;;;;;;;;;;;;;5034916;28;20368;-78
2023/09/14 13:23:02;;;;;;;;;;;;;;;;;;5026244;28;19927;-78
2023/09/14 13:25:27;;;;;;;;;;;;;;;;;;5033199;28;20000;-80
2023/09/14 13:27:53;;;;;;;;;;;;;;;;;;5024064;28;20019;-78
2023/09/14 13:30:18;;;;;;;;;;;;;;;;;;5025240;28;19929;-79
2023/09/14 13:32:46;;;;;;;;;;;;;;;;;;5026675;28;19956;-78
2023/09/14 13:35:12;;;;;;;;;;;;;;;;;;5025277;28;20435;-79
2023/09/14 13:37:38;;;;;;;;;;;;;;;;;;5024880;28;20067;-79
2023/09/14 13:40:18;;;;;;;;;;;;;;;;;;5032927;28;19921;-79
2023/09/14 13:42:53;;;;;;;;;;;;;;;;;;5020623;28;19965;-79
2023/09/14 13:45:19;;;;;;;;;;;;;;;;;;5016011;28;19926;-79
2023/09/14 13:47:44;;;;;;;;;;;;;;;;;;5034183;28;19924;-79
2023/09/14 13:50:10;;;;;;;;;;;;;;;;;;5026062;28;19921;-79
2023/09/14 13:52:35;;;;;;;;;;;;;;;;;;5026844;28;19917;-79
2023/09/14 13:55:01;;;;;;;;;;;;;;;;;;5015682;28;20277;-79
2023/09/14 13:57:26;;;;;;;;;;;;;;;;;;5017005;28;19943;-79
2023/09/14 13:59:51;;;;;;;;;;;;;;;;;;5033194;28;20566;-79
2023/09/14 14:02:17;;;;;;;;;;;;;;;;;;5022560;28;19931;-79
2023/09/14 14:04:42;;;;;;;;;;;;;;;;;;5022126;28;19925;-79
2023/09/14 14:07:09;;;;;;;;;;;;;;;;;;5021289;28;19932;-79
2023/09/14 14:09:35;;;;;;;;;;;;;;;;;;5025308;28;20413;-80
2023/09/14 14:12:02;;;;;;;;;;;;;;;;;;5020679;28;20043;-78
2023/09/14 14:14:27;;;;;;;;;;;;;;;;;;5034879;28;19917;-78
2023/09/14 14:16:53;;;;;;;;;;;;;;;;;;5024576;28;19921;-81
2023/09/14 14:19:18;;;;;;;;;;;;;;;;;;5034628;28;20280;-82
2023/09/14 14:21:44;;;;;;;;;;;;;;;;;;5035147;28;19920;-84
2023/09/14 14:24:09;;;;;;;;;;;;;;;;;;5018553;28;20035;-82
2023/09/14 14:26:34;;;;;;;;;;;;;;;;;;5009648;28;19921;-82
2023/09/14 14:29:00;;;;;;;;;;;;;;;;;;5012058;28;20183;-82
2023/09/14 14:31:25;;;;;;;;;;;;;;;;;;5015192;28;19917;-82
2023/09/14 14:33:50;;;;;;;;;;;;;;;;;;5024300;28;20039;-82
2023/09/14 14:36:16;;;;;;;;;;;;;;;;;;5018235;28;19946;-82
2023/09/14 14:38:41;;;;;;;;;;;;;;;;;;5023055;28;19934;-84
2023/09/14 14:41:06;;;;;;;;;;;;;;;;;;5018910;28;19921;-82
2023/09/14 14:43:32;;;;;;;;;;;;;;;;;;5017057;28;19916;-82
2023/09/14 14:45:57;;;;;;;;;;;;;;;;;;5019117;28;20261;-82
2023/09/14 14:48:23;;;;;;;;;;;;;;;;;;5025070;28;20022;-82
2023/09/14 14:50:55;;;;;;;;;;;;;;;;;;5024224;28;20299;-82
2023/09/14 14:53:23;;;;;;;;;;;;;;;;;;5034254;28;19928;-82
2023/09/14 14:55:49;;;;;;;;;;;;;;;;;;5022361;28;19924;-82
2023/09/14 14:58:14;;;;;;;;;;;;;;;;;;5005794;28;20292;-82
2023/09/14 15:00:40;;;;;;;;;;;;;;;;;;5020142;28;20384;-82
2023/09/14 15:03:07;;;;;;;;;;;;;;;;;;5036973;28;19931;-82
2023/09/14 15:05:32;;;;;;;;;;;;;;;;;;5024551;28;20373;-85
2023/09/14 15:07:57;;;;;;;;;;;;;;;;;;5017616;28;19932;-82
2023/09/14 15:10:23;;;;;;;;;;;;;;;;;;5018654;28;19992;-83
2023/09/14 15:12:52;;;;;;;;;;;;;;;;;;5020251;28;19929;-86
2023/09/14 15:15:17;;;;;;;;;;;;;;;;;;5035519;28;19916;-85
2023/09/14 15:17:42;;;;;;;;;;;;;;;;;;5024597;28;19995;-86
2023/09/14 15:20:08;;;;;;;;;;;;;;;;;;5026832;28;19916;-86
2023/09/14 15:22:33;;;;;;;;;;;;;;;;;;5039322;28;19920;-83
2023/09/14 15:24:58;;;;;;;;;;;;;;;;;;5029147;28;19921;-84
2023/09/14 15:27:23;;;;;;;;;;;;;;;;;;5031516;28;19921;-85
2023/09/14 15:29:49;;;;;;;;;;;;;;;;;;5029935;28;19933;-84
2023/09/14 15:32:14;;;;;;;;;;;;;;;;;;5023991;28;19916;-85
2023/09/14 15:34:39;;;;;;;;;;;;;;;;;;5027965;28;19952;-85
2023/09/14 15:37:05;;;;;;;;;;;;;;;;;;5025556;28;19928;-87
2023/09/14 15:39:31;;;;;;;;;;;;;;;;;;5022570;28;19921;-85
2023/09/14 15:41:56;;;;;;;;;;;;;;;;;;5029316;28;19928;-85
2023/09/14 15:44:21;;;;;;;;;;;;;;;;;;5028939;28;20294;-85
2023/09/14 15:46:46;;;;;;;;;;;;;;;;;;5033643;28;19921;-85
2023/09/14 15:49:12;;;;;;;;;;;;;;;;;;5027199;28;19927;-85
2023/09/14 15:51:37;;;;;;;;;;;;;;;;;;5018437;28;20623;-86
2023/09/14 15:54:03;;;;;;;;;;;;;;;;;;5015793;28;20051;-86
2023/09/14 15:56:28;;;;;;;;;;;;;;;;;;5008862;28;19928;-86
2023/09/14 15:58:54;;;;;;;;;;;;;;;;;;5029684;28;20376;-86
2023/09/14 16:01:20;;;;;;;;;;;;;;;;;;5039738;28;19935;-86
2023/09/14 16:03:45;;;;;;;;;;;;;;;;;;5036859;28;19921;-86
2023/09/14 16:06:10;;;;;;;;;;;;;;;;;;5023539;28;19916;-86
2023/09/14 16:08:36;;;;;;;;;;;;;;;;;;5026885;28;20375;-86
2023/09/14 16:11:01;;;;;;;;;;;;;;;;;;5026782;28;19975;-86
2023/09/14 16:13:26;;;;;;;;;;;;;;;;;;5027305;28;19921;-86
2023/09/14 16:15:52;;;;;;;;;;;;;;;;;;5034129;28;19960;-86
2023/09/14 16:18:17;;;;;;;;;;;;;;;;;;5031142;28;19921;-85
2023/09/14 16:20:46;;;;;;;;;;;;;;;;;;5023171;28;20010;-86
2023/09/14 16:23:11;;;;;;;;;;;;;;;;;;5033126;28;20004;-86
2023/09/14 16:25:36;;;;;;;;;;;;;;;;;;5023976;28;20008;-87
2023/09/14 16:28:02;;;;;;;;;;;;;;;;;;5024953;28;19933;-87
2023/09/14 16:30:27;;;;;;;;;;;;;;;;;;5017146;28;19924;-87
2023/09/14 16:32:54;;;;;;;;;;;;;;;;;;5035620;28;19928;-87
2023/09/14 16:35:19;;;;;;;;;;;;;;;;;;5008376;28;20237;-87
2023/09/14 16:37:44;;;;;;;;;;;;;;;;;;5011410;28;19929;-88
2023/09/14 16:40:10;;;;;;;;;;;;;;;;;;5005763;28;20501;-86
2023/09/14 16:42:36;;;;;;;;;;;;;;;;;;5019728;28;19917;-87
2023/09/14 16:45:03;;;;;;;;;;;;;;;;;;5028489;28;19939;-87
2023/09/14 16:47:28;;;;;;;;;;;;;;;;;;5036092;28;19921;-87
2023/09/14 16:49:53;;;;;;;;;;;;;;;;;;5016221;28;19956;-86
2023/09/14 16:52:19;;;;;;;;;;;;;;;;;;5016440;28;20324;-87